Time;durP1;ratioP1;P1;durP2;ratioP2;P2;SDS_P1;SDS_P2;PMS_P1;PMS_P2;Temp;Humidity;BMP_temperature;BMP_pressure;BME280_temperature;BME280_humidity;BME280_pressure;Samples;Min_cycle;Max_cycle;Signal;HPM_P1;HPM_P2
2023/01/29 00:01:47;;;;;;;3.38;2.67;;;14.10;74.20;;;;;;5093206;28;20135;-77
2023/01/29 00:04:14;;;;;;;3.33;2.55;;;;;;;;;;5093148;28;20482;-77
2023/01/29 00:06:42;;;;;;;3.78;2.70;;;13.20;55.60;;;;;;5094132;28;20078;-77
2023/01/29 00:09:09;;;;;;;3.65;2.42;;;13.20;74.10;;;;;;5073918;28;20456;-77
2023/01/29 00:11:36;;;;;;;3.55;2.60;;;;;;;;;;5056085;28;20459;-77
2023/01/29 00:14:03;;;;;;;3.58;2.60;;;14.20;74.70;;;;;;5055659;28;20060;-77
2023/01/29 00:16:30;;;;;;;4.05;2.50;;;;;;;;;;5056290;28;20052;-76
2023/01/29 00:18:57;;;;;;;4.20;2.97;;;;;;;;;;5055981;28;20061;-77
2023/01/29 00:21:24;;;;;;;4.93;2.50;;;13.20;74.00;;;;;;5080254;28;20044;-77
2023/01/29 00:23:54;;;;;;;3.78;2.70;;;13.10;63.80;;;;;;5109558;28;20052;-77
2023/01/29 00:26:21;;;;;;;3.90;2.60;;;;;;;;;;5075883;28;20052;-77
2023/01/29 00:28:48;;;;;;;3.88;2.75;;;;;;;;;;5075818;28;20062;-77
2023/01/29 00:31:15;;;;;;;3.58;2.53;;;13.00;55.80;;;;;;5075476;28;20056;-77
2023/01/29 00:33:42;;;;;;;4.45;2.50;;;;;;;;;;5075623;28;20127;-77
2023/01/29 00:36:10;;;;;;;4.40;2.85;;;13.00;55.80;;;;;;5075091;28;20131;-77
2023/01/29 00:38:37;;;;;;;3.20;2.70;;;11.90;73.70;;;;;;5075657;28;20060;-76
2023/01/29 00:46:37;;;;;;;3.28;2.50;;;12.50;63.80;;;;;;5075709;28;20047;-76
2023/01/29 00:49:04;;;;;;;3.15;2.60;;;13.70;74.90;;;;;;5074942;28;20047;-76
2023/01/29 00:51:31;;;;;;;2.85;2.35;;;;;;;;;;5109129;28;20044;-77
2023/01/29 00:53:58;;;;;;;3.53;2.60;;;;;;;;;;5093105;28;20394;-77
2023/01/29 00:56:26;;;;;;;4.30;2.60;;;13.20;74.60;;;;;;5092380;28;20390;-77
2023/01/29 00:58:53;;;;;;;3.47;2.55;;;;;;;;;;5092081;28;20135;-77
2023/01/29 01:03:04;;;;;;;2.97;2.40;;;13.00;74.10;;;;;;5093089;28;20078;-77
2023/01/29 01:04:06;;;;;;;3.22;2.50;;;;;;;;;;5081144;28;20055;-77
2023/01/29 01:06:34;;;;;;;3.28;2.45;;;;;;;;;;5075081;28;20062;-77
2023/01/29 01:11:46;;;;;;;3.58;2.67;;;13.10;74.40;;;;;;5108116;28;20060;-77
2023/01/29 01:14:13;;;;;;;4.05;2.67;;;;;;;;;;5074743;28;20484;-77
2023/01/29 01:16:39;;;;;;;3.97;2.70;;;13.10;74.70;;;;;;5074806;28;20556;-77
2023/01/29 01:19:06;;;;;;;3.25;2.58;;;;;;;;;;5075096;28;20136;-77
2023/01/29 01:21:33;;;;;;;4.53;2.80;;;12.90;74.30;;;;;;5074771;28;20135;-77
2023/01/29 01:24:00;;;;;;;3.88;2.78;;;;;;;;;;5074465;28;20067;-77
2023/01/29 01:26:27;;;;;;;3.33;2.58;;;13.80;75.10;;;;;;5074387;28;20058;-77
2023/01/29 01:28:55;;;;;;;3.78;2.88;;;12.90;56.10;;;;;;5074799;28;20060;-77
2023/01/29 01:31:22;;;;;;;4.15;3.00;;;;;;;;;;5074269;28;20064;-77
2023/01/29 01:33:50;;;;;;;3.30;2.60;;;13.10;74.80;;;;;;5074504;28;20056;-77
2023/01/29 01:36:17;;;;;;;3.45;2.80;;;;;;;;;;5074946;28;20056;-77
2023/01/29 01:38:44;;;;;;;3.28;2.45;;;;;;;;;;5092535;28;20453;-77
2023/01/29 01:41:12;;;;;;;3.40;2.42;;;;;;;;;;5091305;28;20430;-77
2023/01/29 01:43:52;;;;;;;4.35;2.90;;;12.80;64.40;;;;;;5091285;28;20067;-77
2023/01/29 01:46:21;;;;;;;3.58;2.63;;;12.30;65.80;;;;;;5078083;28;20102;-77
2023/01/29 01:48:49;;;;;;;3.90;2.88;;;12.80;74.70;;;;;;5082289;28;20135;-77
2023/01/29 01:51:16;;;;;;;3.60;2.63;;;;;;;;;;5090950;28;20135;-77
2023/01/29 01:53:44;;;;;;;2.97;2.58;;;13.00;73.60;;;;;;5091177;28;20056;-76
2023/01/29 01:56:12;;;;;;;3.63;2.53;;;13.90;58.90;;;;;;5090895;28;20151;-77
2023/01/29 01:58:40;;;;;;;4.10;2.55;;;12.80;56.20;;;;;;5091039;28;20473;-76
2023/01/29 02:01:07;;;;;;;4.60;2.70;;;13.10;56.30;;;;;;5108048;28;20142;-77
2023/01/29 02:11:52;;;;;;;4.07;3.00;;;;;;;;;;5107640;28;20036;-77
2023/01/29 02:14:19;;;;;;;2.88;2.55;;;12.20;74.30;;;;;;5073654;28;20052;-77
2023/01/29 02:16:46;;;;;;;3.80;3.00;;;;;;;;;;5074149;28;20465;-77
2023/01/29 02:19:16;;;;;;;4.75;2.50;;;12.20;74.30;;;;;;5073981;28;20559;-76
2023/01/29 02:22:19;;;;;;;4.20;2.70;;;12.80;74.80;;;;;;5073989;28;20209;-77
2023/01/29 02:25:40;;;;;;;3.42;2.65;;;12.70;56.20;;;;;;5071892;28;20060;-77
2023/01/29 02:28:15;;;;;;;3.88;2.80;;;11.90;74.20;;;;;;5042668;28;20453;-77
2023/01/29 02:30:44;;;;;;;4.00;3.03;;;12.70;56.30;;;;;;5096137;28;20058;-76
2023/01/29 02:33:17;;;;;;;3.47;2.80;;;12.80;65.60;;;;;;5073477;28;20120;-77
2023/01/29 02:35:44;;;;;;;3.80;3.05;;;12.70;74.60;;;;;;5073738;28;20135;-77
2023/01/29 02:38:14;;;;;;;4.18;2.97;;;12.90;74.70;;;;;;5089901;28;20066;-77
2023/01/29 02:40:43;;;;;;;4.65;2.85;;;;;;;;;;5089673;28;20052;-76
2023/01/29 02:43:19;;;;;;;3.67;2.80;;;11.50;73.90;;;;;;5073551;28;20067;-77
2023/01/29 02:45:47;;;;;;;3.78;2.78;;;12.70;74.90;;;;;;5087459;28;20054;-77
2023/01/29 02:48:19;;;;;;;3.38;2.90;;;12.60;56.20;;;;;;5090059;28;20082;-77
2023/01/29 02:50:46;;;;;;;3.88;2.90;;;;;;;;;;5091665;28;20101;-77
2023/01/29 02:53:14;;;;;;;3.45;2.70;;;12.70;56.20;;;;;;5090205;28;20052;-77
2023/01/29 02:55:43;;;;;;;3.70;2.75;;;12.80;58.10;;;;;;5080897;28;20091;-76
2023/01/29 02:58:13;;;;;;;3.70;2.90;;;12.60;56.20;;;;;;5073299;28;20612;-77
2023/01/29 03:00:41;;;;;;;3.83;2.90;;;12.70;74.60;;;;;;5072823;28;20138;-77
2023/01/29 03:03:09;;;;;;;3.05;2.60;;;;;;;;;;5073179;28;20052;-77
2023/01/29 03:05:42;;;;;;;3.30;2.88;;;12.80;74.20;;;;;;5073582;28;20485;-77
2023/01/29 03:08:10;;;;;;;4.07;3.28;;;12.60;56.30;;;;;;5091587;28;20444;-76
2023/01/29 03:10:38;;;;;;;4.00;2.85;;;12.60;56.20;;;;;;5073309;28;20420;-77
2023/01/29 03:13:06;;;;;;;4.35;3.10;;;12.50;74.90;;;;;;5073131;28;20056;-77
2023/01/29 03:15:41;;;;;;;3.95;2.80;;;12.60;56.20;;;;;;5073443;28;20056;-77
2023/01/29 03:18:10;;;;;;;4.00;3.00;;;12.60;60.20;;;;;;5073612;28;20109;-77
2023/01/29 03:20:38;;;;;;;3.75;2.95;;;12.60;56.30;;;;;;5073059;28;20123;-76
2023/01/29 03:23:07;;;;;;;5.75;3.63;;;11.90;67.10;;;;;;5073046;28;20143;-76
2023/01/29 03:33:50;;;;;;;4.32;3.03;;;12.70;74.80;;;;;;5088286;28;20052;-77
2023/01/29 03:36:17;;;;;;;3.55;3.10;;;;;;;;;;5073817;28;20052;-77
2023/01/29 03:38:44;;;;;;;3.30;2.72;;;;;;;;;;5056777;28;20428;-77
2023/01/29 03:41:18;;;;;;;3.63;2.88;;;12.60;75.10;;;;;;5078134;28;20052;-77
2023/01/29 03:43:47;;;;;;;3.67;2.85;;;11.60;74.50;;;;;;5093476;28;20056;-77
2023/01/29 03:46:18;;;;;;;4.60;3.00;;;12.60;56.20;;;;;;5093777;28;20063;-77
2023/01/29 03:48:47;;;;;;;4.05;3.00;;;12.50;56.20;;;;;;5094802;28;20409;-76
2023/01/29 03:51:19;;;;;;;3.88;3.00;;;11.30;74.10;;;;;;5093089;28;20063;-76
2023/01/29 03:53:47;;;;;;;4.05;2.92;;;13.50;65.90;;;;;;5094510;28;20440;-76
2023/01/29 03:56:20;;;;;;;4.30;3.08;;;12.60;56.30;;;;;;5079409;28;20078;-77
2023/01/29 03:58:48;;;;;;;4.28;3.00;;;;;;;;;;5076455;28;20056;-76
2023/01/29 04:01:18;;;;;;;3.80;2.90;;;12.60;56.20;;;;;;5076246;28;20055;-77
2023/01/29 04:03:48;;;;;;;4.32;3.10;;;12.70;59.60;;;;;;5076263;28;20056;-77
2023/01/29 04:06:16;;;;;;;4.38;3.30;;;12.60;56.10;;;;;;5076221;28;20135;-77
2023/01/29 04:08:47;;;;;;;3.95;2.92;;;12.60;68.90;;;;;;5076125;28;20062;-76
2023/01/29 04:11:15;;;;;;;3.75;3.03;;;12.90;74.90;;;;;;5075945;28;20062;-77
2023/01/29 04:13:42;;;;;;;4.18;3.03;;;;;;;;;;5075865;28;20445;-76
2023/01/29 04:16:11;;;;;;;4.30;3.70;;;12.70;56.10;;;;;;5094260;28;20123;-76
2023/01/29 04:18:39;;;;;;;3.97;3.08;;;12.60;56.00;;;;;;5076250;28;20056;-77
2023/01/29 04:21:07;;;;;;;3.72;2.90;;;12.90;67.40;;;;;;5076079;28;20123;-76
2023/01/29 04:23:34;;;;;;;4.25;3.10;;;;;;;;;;5075462;28;20086;-76
2023/01/29 04:26:10;;;;;;;4.18;3.13;;;12.90;74.90;;;;;;5076099;28;20056;-76
2023/01/29 04:28:45;;;;;;;3.58;2.88;;;13.10;64.20;;;;;;5076067;28;20052;-77
2023/01/29 04:31:13;;;;;;;4.50;3.30;;;;;;;;;;5075381;28;20051;-77
2023/01/29 04:33:44;;;;;;;3.92;2.90;;;11.70;56.30;;;;;;5075359;28;20059;-76
2023/01/29 04:36:22;;;;;;;3.75;3.00;;;12.80;56.00;;;;;;5093246;28;20082;-76
2023/01/29 04:38:54;;;;;;;3.28;2.67;;;13.10;74.40;;;;;;5068738;28;20144;-76
2023/01/29 04:41:23;;;;;;;3.75;2.92;;;12.80;56.00;;;;;;5063689;28;20049;-76
2023/01/29 04:43:55;;;;;;;4.18;3.00;;;11.50;64.90;;;;;;5055277;28;20084;-77
2023/01/29 04:46:25;;;;;;;3.30;2.90;;;12.80;58.40;;;;;;5055592;28;20052;-76
2023/01/29 04:49:04;;;;;;;4.40;3.20;;;13.00;74.10;;;;;;5055730;28;20110;-76
2023/01/29 04:51:34;;;;;;;3.40;2.63;;;12.90;74.30;;;;;;5055237;28;20088;-76
2023/01/29 04:54:04;;;;;;;5.35;3.70;;;13.30;74.30;;;;;;5061896;28;20091;-77
2023/01/29 04:56:35;;;;;;;4.55;3.25;;;13.00;74.20;;;;;;5075344;28;20052;-77
2023/01/29 04:59:02;;;;;;;4.22;3.05;;;;;;;;;;5075408;28;20082;-77
2023/01/29 05:01:31;;;;;;;3.05;2.60;;;13.00;61.00;;;;;;5075342;28;20055;-77
2023/01/29 05:04:01;;;;;;;4.60;2.83;;;12.80;55.80;;;;;;5074797;28;20048;-76
2023/01/29 05:06:28;;;;;;;4.13;2.80;;;;;;;;;;5075231;28;20411;-77
2023/01/29 05:08:55;;;;;;;4.10;2.95;;;;;;;;;;5075236;28;20083;-76
2023/01/29 05:11:22;;;;;;;3.70;3.13;;;;;;;;;;5074700;28;20055;-77
2023/01/29 05:13:49;;;;;;;3.50;2.55;;;;;;;;;;5074790;28;20140;-77
2023/01/29 05:16:18;;;;;;;4.75;3.35;;;12.90;55.70;;;;;;5092917;28;20122;-77
2023/01/29 05:18:45;;;;;;;3.30;2.90;;;;;;;;;;5075035;28;20059;-77
2023/01/29 05:21:13;;;;;;;3.72;3.03;;;12.80;55.70;;;;;;5074343;28;20123;-77
2023/01/29 05:23:52;;;;;;;3.72;3.10;;;;;;;;;;5074792;28;20139;-77
2023/01/29 05:29:04;;;;;;;3.37;2.73;;;;;;;;;;5074916;28;20044;-76
2023/01/29 05:31:31;;;;;;;3.53;2.75;;;;;;;;;;5074659;28;20304;-76
2023/01/29 05:33:57;;;;;;;3.60;2.90;;;13.00;61.50;;;;;;5073823;28;20063;-76
2023/01/29 05:36:26;;;;;;;3.42;2.78;;;12.90;55.70;;;;;;5092082;28;20127;-77
2023/01/29 05:38:53;;;;;;;3.05;2.75;;;;;;;;;;5092436;28;20126;-76
2023/01/29 05:41:20;;;;;;;3.53;2.70;;;;;;;;;;5074428;28;20055;-76
2023/01/29 05:43:47;;;;;;;3.95;2.78;;;12.80;73.80;;;;;;5073813;28;20055;-77
2023/01/29 05:46:14;;;;;;;3.65;3.15;;;;;;;;;;5074579;28;20138;-76
2023/01/29 05:48:41;;;;;;;3.88;3.13;;;;;;;;;;5074550;28;20497;-76
2023/01/29 05:51:08;;;;;;;3.45;3.05;;;13.10;65.40;;;;;;5074225;28;20087;-76
2023/01/29 05:53:36;;;;;;;4.22;3.38;;;13.20;55.80;;;;;;5073911;28;20062;-77
2023/01/29 05:56:03;;;;;;;3.50;2.97;;;13.00;74.10;;;;;;5073755;28;20499;-77
2023/01/29 05:58:30;;;;;;;3.78;3.00;;;13.00;74.20;;;;;;5073801;28;20048;-76
2023/01/29 06:00:56;;;;;;;4.05;3.25;;;13.00;73.80;;;;;;5074056;28;20130;-77
2023/01/29 06:03:23;;;;;;;3.42;3.00;;;11.80;73.20;;;;;;5092067;28;20074;-76
2023/01/29 06:05:50;;;;;;;4.03;3.30;;;11.80;57.50;;;;;;5107814;28;20131;-77
2023/01/29 06:08:17;;;;;;;3.75;2.95;;;;;;;;;;5081744;28;20394;-76
2023/01/29 06:10:45;;;;;;;4.38;3.28;;;13.00;55.70;;;;;;5071956;28;20390;-77
2023/01/29 06:13:12;;;;;;;4.82;2.90;;;12.30;73.40;;;;;;5053763;28;20131;-77
2023/01/29 06:15:40;;;;;;;3.08;2.72;;;12.90;61.50;;;;;;5053753;28;20131;-76
2023/01/29 06:18:07;;;;;;;3.55;2.60;;;12.70;68.20;;;;;;5053787;28;20055;-77
2023/01/29 06:20:34;;;;;;;3.95;2.97;;;11.90;73.40;;;;;;5054071;28;20139;-77
2023/01/29 06:23:01;;;;;;;3.75;2.90;;;;;;;;;;5081731;28;20556;-76
2023/01/29 06:25:27;;;;;;;3.13;2.70;;;13.10;74.00;;;;;;5073667;28;20382;-77
2023/01/29 06:27:56;;;;;;;3.85;2.97;;;;;;;;;;5073928;28;20052;-76
2023/01/29 06:30:23;;;;;;;5.43;3.35;;;;;;;;;;5073802;28;20054;-76
2023/01/29 06:32:49;;;;;;;3.60;3.10;;;12.90;73.70;;;;;;5063354;28;20123;-77
2023/01/29 06:35:16;;;;;;;3.40;2.97;;;13.60;74.00;;;;;;5071604;28;20127;-76
2023/01/29 06:37:43;;;;;;;3.42;2.72;;;;;;;;;;5082472;28;20131;-77
2023/01/29 06:40:11;;;;;;;3.65;2.85;;;12.00;58.30;;;;;;5090686;28;20068;-76
2023/01/29 06:42:38;;;;;;;5.18;3.40;;;12.50;73.60;;;;;;5090006;28;20135;-76
2023/01/29 06:45:07;;;;;;;3.67;3.15;;;12.40;73.30;;;;;;5090774;28;20060;-77
2023/01/29 06:47:34;;;;;;;3.55;2.90;;;14.20;61.90;;;;;;5090390;28;20060;-77
2023/01/29 06:50:00;;;;;;;3.83;3.05;;;14.00;74.10;;;;;;5090829;28;20048;-76
2023/01/29 06:52:28;;;;;;;5.90;3.28;;;;;;;;;;5076157;28;20048;-76
2023/01/29 06:54:55;;;;;;;3.90;3.00;;;13.00;73.60;;;;;;5073558;28;20062;-76
2023/01/29 06:57:22;;;;;;;5.85;3.08;;;;;;;;;;5073663;28;20060;-77
2023/01/29 06:59:49;;;;;;;4.30;3.28;;;;;;;;;;5073814;28;20126;-77
2023/01/29 07:02:17;;;;;;;3.38;2.95;;;13.10;55.70;;;;;;5091199;28;20052;-77
2023/01/29 07:04:44;;;;;;;4.50;3.42;;;;;;;;;;5107195;28;20423;-77
2023/01/29 07:07:12;;;;;;;4.32;3.28;;;;;;;;;;5091619;28;20400;-77
2023/01/29 07:09:40;;;;;;;3.83;2.97;;;;;;;;;;5081303;28;20056;-76
2023/01/29 07:12:07;;;;;;;3.30;2.78;;;12.00;72.90;;;;;;5086009;28;20044;-76
2023/01/29 07:14:34;;;;;;;3.58;2.80;;;13.20;73.50;;;;;;5090680;28;20138;-77
2023/01/29 07:17:01;;;;;;;4.60;3.00;;;;;;;;;;5112423;28;20133;-77
2023/01/29 07:19:29;;;;;;;3.65;2.90;;;13.20;55.50;;;;;;5083404;28;20552;-77
2023/01/29 07:21:55;;;;;;;3.90;2.83;;;13.70;74.00;;;;;;5083348;28;20044;-77
2023/01/29 07:24:23;;;;;;;4.13;3.05;;;;;;;;;;5085744;28;20584;-77
2023/01/29 07:26:50;;;;;;;3.70;2.92;;;14.50;74.00;;;;;;5088082;28;20063;-77
2023/01/29 07:29:17;;;;;;;3.40;2.70;;;13.50;58.90;;;;;;5112325;27;20138;-76
2023/01/29 07:31:44;;;;;;;4.38;3.13;;;;;;;;;;5093572;28;20070;-76
2023/01/29 07:34:10;;;;;;;4.13;2.80;;;13.50;73.60;;;;;;5094568;28;20127;-76
2023/01/29 07:36:38;;;;;;;3.30;2.90;;;13.50;55.40;;;;;;5094504;28;20054;-77
2023/01/29 07:39:05;;;;;;;3.25;2.85;;;;;;;;;;5076564;28;20548;-75
2023/01/29 07:41:32;;;;;;;4.22;2.78;;;;;;;;;;5079442;28;20407;-77
2023/01/29 07:43:59;;;;;;;3.70;2.90;;;13.30;60.20;;;;;;5102117;28;20373;-76
2023/01/29 07:46:26;;;;;;;3.97;3.00;;;13.20;72.90;;;;;;5084886;28;20058;-77
2023/01/29 07:48:53;;;;;;;3.92;2.75;;;;;;;;;;5110153;28;20055;-77
2023/01/29 07:51:20;;;;;;;3.92;2.70;;;13.60;73.50;;;;;;5076039;28;20142;-77
2023/01/29 07:53:48;;;;;;;3.17;2.60;;;12.80;73.00;;;;;;5076189;28;20127;-76
2023/01/29 07:56:15;;;;;;;3.85;2.85;;;13.70;73.30;;;;;;5076568;28;20135;-77
2023/01/29 07:58:42;;;;;;;4.50;2.60;;;;;;;;;;5111237;28;20416;-77
2023/01/29 08:01:09;;;;;;;3.33;2.65;;;;;;;;;;5084614;28;20131;-76
2023/01/29 08:03:36;;;;;;;3.42;2.70;;;;;;;;;;5082260;28;20136;-77
2023/01/29 08:06:03;;;;;;;3.03;2.50;;;12.60;72.60;;;;;;5087849;28;20052;-77
2023/01/29 08:08:30;;;;;;;3.40;2.60;;;;;;;;;;5083400;28;20138;-77
2023/01/29 08:11:00;;;;;;;3.58;2.70;;;13.60;55.30;;;;;;5087807;28;20056;-77
2023/01/29 08:13:27;;;;;;;4.18;2.90;;;12.90;72.80;;;;;;5084533;28;20123;-77
2023/01/29 08:15:54;;;;;;;3.38;2.60;;;;;;;;;;5084486;28;20052;-77
2023/01/29 08:18:21;;;;;;;2.83;2.50;;;;;;;;;;5083974;28;20056;-77
2023/01/29 08:20:48;;;;;;;3.78;2.90;;;14.20;73.70;;;;;;5085276;28;20050;-77
2023/01/29 08:23:15;;;;;;;2.90;2.60;;;13.90;63.70;;;;;;5112388;28;20051;-78
2023/01/29 08:25:42;;;;;;;2.90;2.40;;;12.50;72.80;;;;;;5086186;28;20403;-77
2023/01/29 08:28:11;;;;;;;2.90;2.50;;;13.70;55.30;;;;;;5111435;28;20048;-78
2023/01/29 08:30:37;;;;;;;3.15;2.63;;;12.30;72.70;;;;;;5084934;28;20386;-77
2023/01/29 08:33:04;;;;;;;3.03;2.58;;;13.60;73.10;;;;;;5104910;28;20132;-77
2023/01/29 08:35:31;;;;;;;2.92;2.38;;;;;;;;;;5079154;28;20048;-77
2023/01/29 08:37:59;;;;;;;3.47;2.60;;;13.80;58.10;;;;;;5077458;28;20500;-74
2023/01/29 08:40:26;;;;;;;3.17;2.60;;;;;;;;;;5093008;28;20048;-72
2023/01/29 08:42:53;;;;;;;3.10;2.47;;;;;;;;;;5085799;28;20131;-77
2023/01/29 08:45:21;;;;;;;3.40;2.70;;;13.70;55.20;;;;;;5099412;28;20072;-77
2023/01/29 08:47:48;;;;;;;3.47;2.80;;;13.70;55.20;;;;;;5083406;28;20051;-77
2023/01/29 08:50:15;;;;;;;3.42;2.33;;;;;;;;;;5075227;28;20067;-77
2023/01/29 08:52:42;;;;;;;3.72;2.55;;;13.80;73.30;;;;;;5074938;28;20051;-75
2023/01/29 08:55:09;;;;;;;3.13;2.40;;;;;;;;;;5093531;28;20127;-73
2023/01/29 08:57:36;;;;;;;2.80;2.20;;;;;;;;;;5093091;28;20530;-73
2023/01/29 09:00:04;;;;;;;3.83;2.70;;;;;;;;;;5075295;28;20525;-74
2023/01/29 09:02:32;;;;;;;4.57;3.10;;;13.80;55.10;;;;;;5075048;28;20550;-73
2023/01/29 09:04:58;;;;;;;4.57;2.90;;;14.00;64.30;;;;;;5093457;28;20054;-73
2023/01/29 09:07:25;;;;;;;5.25;2.92;;;14.80;73.40;;;;;;5093162;28;20044;-73
2023/01/29 09:09:52;;;;;;;3.72;2.95;;;13.90;60.00;;;;;;5092731;28;20386;-73
2023/01/29 09:12:19;;;;;;;3.15;2.78;;;;;;;;;;5074702;28;20044;-76
2023/01/29 09:14:46;;;;;;;3.35;2.28;;;;;;;;;;5074938;28;20132;-78
2023/01/29 09:17:13;;;;;;;3.58;2.97;;;;;;;;;;5093124;28;20044;-76
2023/01/29 09:19:41;;;;;;;3.83;3.00;;;14.20;73.20;;;;;;5075047;28;20052;-76
2023/01/29 09:22:08;;;;;;;4.10;3.10;;;;;;;;;;5079077;28;20131;-77
2023/01/29 09:24:35;;;;;;;3.38;2.75;;;;;;;;;;5091767;28;20130;-76
2023/01/29 09:27:03;;;;;;;3.03;2.53;;;;;;;;;;5091636;28;20062;-77
2023/01/29 09:29:30;;;;;;;3.53;2.70;;;14.70;59.30;;;;;;5087342;28;20552;-76
2023/01/29 09:31:57;;;;;;;3.60;2.80;;;14.30;73.10;;;;;;5073606;28;20067;-76
2023/01/29 09:34:24;;;;;;;3.75;2.80;;;15.00;73.40;;;;;;5074772;28;20058;-77
2023/01/29 09:36:53;;;;;;;4.82;2.70;;;14.10;54.90;;;;;;5074158;28;20062;-77
2023/01/29 09:39:20;;;;;;;3.17;2.47;;;14.20;72.80;;;;;;5092554;28;20075;-78
2023/01/29 09:41:51;;;;;;;3.70;2.70;;;14.10;54.80;;;;;;5074323;28;20059;-77
2023/01/29 09:44:19;;;;;;;3.83;2.95;;;14.00;54.80;;;;;;5074458;28;20052;-77
2023/01/29 09:46:47;;;;;;;3.63;2.80;;;14.20;72.60;;;;;;5074753;28;20139;-77
2023/01/29 09:49:16;;;;;;;3.58;2.83;;;14.00;72.50;;;;;;5074215;28;20058;-77
2023/01/29 09:51:44;;;;;;;3.30;2.60;;;14.10;54.80;;;;;;5073872;28;20054;-77
2023/01/29 09:54:16;;;;;;;5.93;3.00;;;14.00;68.30;;;;;;5073581;28;20469;-77
2023/01/29 09:56:43;;;;;;;2.80;2.40;;;;;;;;;;5074436;28;20402;-77
2023/01/29 09:59:10;;;;;;;3.60;2.67;;;14.70;73.10;;;;;;5091804;28;20404;-77
2023/01/29 10:01:40;;;;;;;5.05;3.20;;;14.10;54.80;;;;;;5108229;28;20131;-78
2023/01/29 10:04:39;;;;;;;5.30;2.95;;;14.20;72.90;;;;;;5107996;28;20135;-77
2023/01/29 10:07:15;;;;;;;3.95;2.65;;;14.00;54.80;;;;;;5030730;28;20044;-77
2023/01/29 10:09:53;;;;;;;5.45;3.03;;;14.40;72.80;;;;;;5074145;28;20051;-77
2023/01/29 10:12:31;;;;;;;3.80;2.80;;;13.70;72.70;;;;;;5091691;28;20047;-78
2023/01/29 10:15:00;;;;;;;3.92;2.58;;;14.00;55.00;;;;;;5073937;28;20072;-77
2023/01/29 10:17:50;;;;;;;3.85;2.90;;;14.00;55.00;;;;;;5073924;28;20062;-77
2023/01/29 10:20:47;;;;;;;3.63;2.85;;;14.20;73.20;;;;;;5091049;28;20056;-77
2023/01/29 10:23:21;;;;;;;4.20;2.97;;;14.00;55.10;;;;;;5033374;28;20126;-76
2023/01/29 10:25:49;;;;;;;3.15;2.40;;;13.90;60.30;;;;;;5074122;28;20081;-78
2023/01/29 10:28:18;;;;;;;3.75;2.78;;;13.70;57.80;;;;;;5107711;28;20135;-77
2023/01/29 10:30:47;;;;;;;4.43;2.85;;;13.90;55.10;;;;;;5074144;28;20067;-76
2023/01/29 10:33:18;;;;;;;3.80;3.22;;;12.90;54.50;;;;;;5059737;28;20055;-77
2023/01/29 10:35:48;;;;;;;5.00;2.88;;;14.00;73.10;;;;;;5073534;28;20090;-77
2023/01/29 10:38:22;;;;;;;3.78;3.05;;;13.90;55.20;;;;;;5054011;28;20087;-77
2023/01/29 10:40:53;;;;;;;5.40;3.28;;;14.10;58.80;;;;;;5087342;28;20056;-76
2023/01/29 10:43:22;;;;;;;4.28;3.33;;;13.80;55.20;;;;;;5056276;28;20041;-77
2023/01/29 10:45:52;;;;;;;3.88;2.95;;;14.50;73.30;;;;;;5084465;28;20175;-77
2023/01/29 10:48:40;;;;;;;3.42;2.90;;;14.10;55.90;;;;;;5109544;28;20059;-77
2023/01/29 10:51:13;;;;;;;4.20;3.20;;;13.70;55.30;;;;;;5081077;28;20540;-78
2023/01/29 10:53:52;;;;;;;3.67;2.88;;;14.70;73.70;;;;;;5111865;28;20123;-77
2023/01/29 10:56:34;;;;;;;4.68;3.03;;;13.70;55.30;;;;;;5083803;28;20146;-78
2023/01/29 10:59:04;;;;;;;3.17;2.72;;;13.60;55.30;;;;;;5082369;28;20056;-76
2023/01/29 11:01:30;;;;;;;4.78;3.30;;;13.80;73.00;;;;;;5086358;28;20100;-77
2023/01/29 11:03:58;;;;;;;3.70;2.92;;;12.70;68.50;;;;;;5111478;28;20408;-77
2023/01/29 11:06:28;;;;;;;3.83;3.00;;;13.60;55.40;;;;;;5087434;28;20209;-77
2023/01/29 11:08:58;;;;;;;4.22;3.42;;;13.60;55.40;;;;;;5085347;28;20052;-77
2023/01/29 11:11:31;;;;;;;3.83;3.20;;;14.10;57.10;;;;;;5086881;28;20054;-77
2023/01/29 11:13:59;;;;;;;3.45;3.00;;;13.60;60.10;;;;;;5102132;28;20075;-77
2023/01/29 11:16:26;;;;;;;4.63;3.15;;;13.70;73.30;;;;;;5086779;28;20125;-76
2023/01/29 11:18:57;;;;;;;5.07;3.08;;;13.50;55.40;;;;;;5103900;28;20445;-77
2023/01/29 11:21:24;;;;;;;4.85;3.53;;;;;;;;;;5087123;28;20123;-78
2023/01/29 11:23:51;;;;;;;6.65;2.88;;;13.40;73.60;;;;;;5086611;28;20433;-77
2023/01/29 11:26:19;;;;;;;3.35;2.90;;;13.40;55.50;;;;;;5086169;28;20503;-78
2023/01/29 11:28:49;;;;;;;5.03;3.15;;;13.50;55.50;;;;;;5086070;28;20139;-77
2023/01/29 11:31:18;;;;;;;3.88;3.13;;;13.80;73.70;;;;;;5083861;28;20576;-78
2023/01/29 11:33:45;;;;;;;3.55;3.00;;;12.80;73.20;;;;;;5077621;28;20054;-77
2023/01/29 11:36:22;;;;;;;3.80;3.13;;;13.40;55.60;;;;;;5075637;28;20079;-75
2023/01/29 11:39:04;;;;;;;3.20;2.90;;;12.30;73.30;;;;;;5082278;28;20544;-74
2023/01/29 11:41:31;;;;;;;5.32;3.38;;;12.80;73.70;;;;;;5076431;28;20050;-74
2023/01/29 11:43:59;;;;;;;4.43;3.50;;;13.30;55.50;;;;;;5076843;28;20058;-75
2023/01/29 11:46:26;;;;;;;5.00;3.90;;;13.40;59.30;;;;;;5076995;28;20052;-74
2023/01/29 11:48:53;;;;;;;3.85;3.20;;;13.10;73.50;;;;;;5076261;28;20233;-74
2023/01/29 11:51:22;;;;;;;5.50;3.67;;;13.30;55.60;;;;;;5076764;28;20056;-76
2023/01/29 11:53:50;;;;;;;3.60;3.22;;;13.30;55.60;;;;;;5075774;28;20507;-74
2023/01/29 11:56:20;;;;;;;4.32;3.58;;;14.20;74.40;;;;;;5076011;28;20134;-74
2023/01/29 11:58:47;;;;;;;4.90;3.65;;;13.50;73.90;;;;;;5076024;28;20062;-74
2023/01/29 12:01:16;;;;;;;4.20;3.50;;;13.20;74.00;;;;;;5076107;28;20084;-76
2023/01/29 12:03:44;;;;;;;4.63;3.63;;;13.40;55.80;;;;;;5076064;28;20048;-77
2023/01/29 12:06:17;;;;;;;4.88;3.72;;;13.00;73.00;;;;;;5076523;28;20058;-77
2023/01/29 12:08:43;;;;;;;5.57;3.70;;;13.30;74.10;;;;;;5076635;28;20495;-76
2023/01/29 12:11:12;;;;;;;4.50;3.53;;;13.30;73.70;;;;;;5083740;28;20071;-77
2023/01/29 12:13:39;;;;;;;6.03;3.92;;;;;;;;;;5074892;28;20456;-78
2023/01/29 12:16:13;;;;;;;5.55;4.43;;;13.20;55.70;;;;;;5093932;28;20055;-77
2023/01/29 12:18:41;;;;;;;6.10;4.18;;;13.60;64.70;;;;;;5078775;28;20484;-77
2023/01/29 12:21:12;;;;;;;6.55;4.30;;;13.20;74.10;;;;;;5078519;28;20044;-78
2023/01/29 12:23:40;;;;;;;4.65;3.67;;;12.10;73.60;;;;;;5075892;28;20048;-77
2023/01/29 12:26:09;;;;;;;4.80;3.80;;;13.10;74.10;;;;;;5076002;28;20459;-77
2023/01/29 12:28:48;;;;;;;5.68;4.10;;;11.90;68.60;;;;;;5075893;28;20044;-76
2023/01/29 12:31:21;;;;;;;5.50;3.92;;;13.20;55.70;;;;;;5078979;28;20489;-76
2023/01/29 12:33:52;;;;;;;4.50;3.70;;;13.20;55.80;;;;;;5083977;28;20050;-77
2023/01/29 12:36:21;;;;;;;5.90;3.78;;;13.70;74.40;;;;;;5084021;28;20059;-76
2023/01/29 12:38:48;;;;;;;4.90;4.20;;;13.20;66.50;;;;;;5086100;28;20127;-77
2023/01/29 12:41:26;;;;;;;4.50;3.90;;;12.00;73.40;;;;;;5081976;28;20139;-78
2023/01/29 12:43:54;;;;;;;4.97;4.00;;;13.20;55.70;;;;;;5086262;28;20050;-77
2023/01/29 12:46:22;;;;;;;5.47;3.97;;;13.10;57.70;;;;;;5084391;28;20138;-77
2023/01/29 12:48:50;;;;;;;6.28;3.65;;;13.20;59.30;;;;;;5083182;28;20052;-77
2023/01/29 12:51:18;;;;;;;5.10;3.78;;;14.30;74.20;;;;;;5083864;28;20135;-77
2023/01/29 12:53:47;;;;;;;4.05;3.40;;;13.00;73.50;;;;;;5083872;28;20131;-77
2023/01/29 12:56:16;;;;;;;4.47;3.70;;;14.00;74.20;;;;;;5083762;28;20056;-77
2023/01/29 12:58:44;;;;;;;8.13;3.47;;;13.30;55.60;;;;;;5087738;28;20135;-77
2023/01/29 13:01:14;;;;;;;4.28;3.63;;;13.40;73.80;;;;;;5095170;28;20053;-75
2023/01/29 13:03:46;;;;;;;4.13;3.30;;;13.30;55.60;;;;;;5113453;28;20051;-76
2023/01/29 13:06:16;;;;;;;4.13;3.30;;;13.30;64.30;;;;;;5095315;28;20514;-76
2023/01/29 13:08:44;;;;;;;4.07;3.25;;;13.30;55.60;;;;;;5091315;28;20048;-76
2023/01/29 13:11:14;;;;;;;5.90;3.65;;;14.00;74.20;;;;;;5092301;28;20482;-79
2023/01/29 13:13:43;;;;;;;4.78;3.38;;;13.40;55.80;;;;;;5081214;28;20048;-77
2023/01/29 13:16:10;;;;;;;4.70;3.28;;;;;;;;;;5075140;28;20052;-74
2023/01/29 13:18:40;;;;;;;5.07;3.60;;;14.50;68.00;;;;;;5092937;28;20072;-76
2023/01/29 13:21:07;;;;;;;5.28;3.38;;;;;;;;;;5092708;28;20051;-77
2023/01/29 13:23:37;;;;;;;4.80;3.58;;;13.50;72.80;;;;;;5073726;28;20135;-76
2023/01/29 13:26:04;;;;;;;5.63;3.38;;;13.80;70.70;;;;;;5073889;28;20139;-77
2023/01/29 13:28:31;;;;;;;4.10;3.28;;;;;;;;;;5093222;28;20401;-77
2023/01/29 13:31:13;;;;;;;6.03;3.42;;;13.30;73.40;;;;;;5074327;28;20058;-76
2023/01/29 13:33:40;;;;;;;5.25;3.53;;;12.20;63.60;;;;;;5057608;28;20501;-77
2023/01/29 13:36:07;;;;;;;4.28;3.45;;;13.10;73.40;;;;;;5074751;28;20128;-76
2023/01/29 13:38:35;;;;;;;4.75;3.20;;;13.80;74.00;;;;;;5091091;28;20416;-77
2023/01/29 13:41:04;;;;;;;4.15;3.28;;;13.60;55.90;;;;;;5091396;28;20056;-77
2023/01/29 13:43:33;;;;;;;4.15;3.38;;;13.80;73.70;;;;;;5091509;28;20051;-77
2023/01/29 13:46:00;;;;;;;4.03;3.10;;;12.50;73.00;;;;;;5081923;28;20059;-77
2023/01/29 13:48:27;;;;;;;4.22;3.15;;;13.70;73.70;;;;;;5108062;28;20133;-76
2023/01/29 13:50:55;;;;;;;4.00;3.10;;;;;;;;;;5074335;28;20390;-77
2023/01/29 13:53:22;;;;;;;4.72;3.33;;;12.90;73.40;;;;;;5074466;28;20052;-77